Time;durP1;ratioP1;P1;durP2;ratioP2;P2;SDS_P1;SDS_P2;PMS_P1;PMS_P2;Temp;Humidity;BMP_temperature;BMP_pressure;BME280_temperature;BME280_humidity;BME280_pressure;Samples;Min_cycle;Max_cycle;Signal;HPM_P1;HPM_P2
2023/10/08 19:14:33;;;;;;;95.97;36.00;;;;;;;9.57;76.69;101678.88;5100790;57;97894;-70
2023/10/08 19:19:36;;;;;;;88.50;38.13;;;;;;;9.45;77.28;101676.45;4915776;58;1134578;-71
2023/10/08 19:24:41;;;;;;;78.28;34.58;;;;;;;9.36;77.76;101676.93;4944097;58;1139001;-72
2023/10/08 19:29:47;;;;;;;67.53;30.10;;;;;;;9.28;78.26;101677.83;4905936;58;1139155;-72
2023/10/08 19:34:53;;;;;;;72.03;30.63;;;;;;;9.18;78.69;101666.89;4801898;58;1138983;-73
2023/10/08 19:40:09;;;;;;;74.10;31.25;;;;;;;9.06;79.07;101680.27;4842393;57;1138832;-73
2023/10/08 19:45:14;;;;;;;63.07;24.87;;;;;;;8.97;79.60;101687.37;4829882;58;1138947;-73
2023/10/08 19:50:19;;;;;;;44.10;19.27;;;;;;;8.94;80.70;101684.88;4817241;57;1138885;-72
2023/10/08 19:55:23;;;;;;;36.75;15.93;;;;;;;8.61;78.51;101681.34;4760305;60;1138810;-73
2023/10/08 20:00:29;;;;;;;25.65;12.50;;;;;;;8.26;79.55;101679.96;4857750;58;1138822;-73
2023/10/08 20:05:35;;;;;;;41.40;17.47;;;;;;;8.25;81.13;101670.34;4850248;59;1138791;-73
2023/10/08 20:10:43;;;;;;;51.27;18.00;;;;;;;8.29;81.87;101668.42;4838569;59;1138892;-71
2023/10/08 20:15:52;;;;;;;40.37;15.93;;;;;;;8.28;81.98;101664.08;4854596;59;1138708;-73
2023/10/08 20:20:57;;;;;;;31.87;15.23;;;;;;;8.27;82.22;101674.23;4931830;57;1138927;-73
2023/10/08 20:26:15;;;;;;;41.37;19.27;;;;;;;8.16;82.07;101666.86;4930927;56;1138859;-73
2023/10/08 20:31:21;;;;;;;43.42;19.98;;;;;;;8.04;82.38;101667.01;4936115;56;1138926;-73
2023/10/08 20:36:28;;;;;;;42.93;19.30;;;;;;;7.96;82.61;101674.88;4999668;56;1139114;-73
2023/10/08 20:41:34;;;;;;;47.10;20.43;;;;;;;7.93;83.27;101682.48;4886543;57;1138630;-73
2023/10/08 20:46:43;;;;;;;49.30;20.23;;;;;;;7.85;83.74;101674.08;4886864;58;1138749;-73
2023/10/08 20:51:48;;;;;;;33.93;16.17;;;;;;;7.72;83.78;101670.33;4915908;56;1138964;-73
2023/10/08 20:56:54;;;;;;;45.43;20.40;;;;;;;7.56;84.71;101654.86;4986230;56;1138904;-73
2023/10/08 21:02:00;;;;;;;61.37;34.37;;;;;;;7.45;84.96;101672.48;4948556;57;1140969;-72
2023/10/08 21:07:07;;;;;;;23.20;11.40;;;;;;;7.36;85.98;101662.36;4978534;57;1140862;-72
2023/10/08 21:12:13;;;;;;;14.83;8.40;;;;;;;7.30;86.89;101664.83;4956835;58;1140960;-72
2023/10/08 21:17:19;;;;;;;16.02;6.87;;;;;;;7.31;87.85;101657.33;4937990;58;1136839;-73
2023/10/08 21:22:28;;;;;;;10.08;6.15;;;;;;;7.38;88.48;101656.56;4953168;57;1137088;-72
2023/10/08 21:27:33;;;;;;;12.03;6.30;;;;;;;7.08;86.70;101668.48;4848625;57;1136608;-73
2023/10/08 21:32:40;;;;;;;33.50;24.10;;;;;;;6.92;88.89;101676.20;4900992;58;1136578;-72
2023/10/08 21:37:47;;;;;;;23.07;9.10;;;;;;;6.98;90.64;101666.73;4888020;58;1138724;-72
2023/10/08 21:42:54;;;;;;;16.37;7.50;;;;;;;6.93;90.69;101650.30;4885961;57;1137219;-73
2023/10/08 21:48:00;;;;;;;19.70;6.60;;;;;;;6.97;91.40;101643.98;4897099;57;1139078;-73
2023/10/08 21:53:07;;;;;;;29.37;8.93;;;;;;;7.10;91.95;101644.28;4933500;57;1138905;-72
2023/10/08 21:58:13;;;;;;;68.80;22.13;;;;;;;7.15;91.83;101640.53;4939041;58;1139010;-73
2023/10/08 22:03:18;;;;;;;37.83;13.87;;;;;;;7.16;92.12;101654.54;4897492;58;1144601;-73
2023/10/08 22:08:25;;;;;;;34.03;12.37;;;;;;;7.15;92.26;101647.11;4936078;58;1139139;-73
2023/10/08 22:13:31;;;;;;;65.13;19.10;;;;;;;6.84;93.31;101648.08;4969379;57;1139198;-72
2023/10/08 22:18:39;;;;;;;22.07;9.73;;;;;;;6.84;93.31;101648.08;4963345;57;1138993;-72
2023/10/08 22:23:44;;;;;;;32.30;13.07;;;;;;;6.76;93.38;101635.25;4955219;58;1136747;-73
2023/10/08 22:28:51;;;;;;;22.73;10.30;;;;;;;6.78;93.64;101639.14;4936809;58;1138703;-73
2023/10/08 22:34:04;;;;;;;12.47;7.00;;;;;;;6.88;93.98;101628.59;4993374;57;1141422;-73
2023/10/08 22:39:10;;;;;;;25.60;9.77;;;;;;;6.84;93.93;101612.59;5071022;57;1139065;-72
2023/10/08 22:44:14;;;;;;;16.47;7.27;;;;;;;6.79;94.36;101604.03;5044881;57;1136951;-73
2023/10/08 22:49:20;;;;;;;9.28;5.58;;;;;;;6.65;93.82;101584.47;5040442;57;1136593;-72
2023/10/08 22:54:27;;;;;;;13.28;5.53;;;;;;;6.44;94.06;101581.46;5038294;57;1134818;-73
2023/10/08 22:59:33;;;;;;;9.13;5.60;;;;;;;6.26;94.42;101576.53;5027944;57;1136654;-73
2023/10/08 23:04:40;;;;;;;18.27;7.00;;;;;;;6.17;95.77;101566.44;5040878;57;1134807;-72
2023/10/08 23:09:46;;;;;;;29.07;10.93;;;;;;;6.24;97.70;101563.09;5074990;56;1136527;-73
2023/10/08 23:14:53;;;;;;;12.33;5.90;;;;;;;6.34;98.36;101549.95;5147227;56;1138523;-73
2023/10/08 23:19:59;;;;;;;12.90;5.20;;;;;;;6.41;98.07;101552.72;5046705;56;1136538;-72
2023/10/08 23:25:05;;;;;;;21.20;9.70;;;;;;;6.47;97.26;101540.60;5043883;57;1138706;-73
2023/10/08 23:30:11;;;;;;;13.10;6.93;;;;;;;6.54;97.47;101531.54;5063497;56;1138634;-72
2023/10/08 23:35:19;;;;;;;15.50;8.03;;;;;;;6.57;97.71;101531.38;5043705;56;1140976;-72
2023/10/08 23:40:30;;;;;;;19.75;8.68;;;;;;;6.64;98.11;101531.97;5042934;56;1136825;-72
2023/10/08 23:45:40;;;;;;;14.30;6.58;;;;;;;6.53;96.22;101542.12;5043733;57;1136972;-72
2023/10/08 23:50:42;;;;;;;9.60;5.63;;;;;;;6.40;97.21;101534.39;5062942;56;1136848;-73
2023/10/08 23:56:01;;;;;;;16.93;6.77;;;;;;;6.23;97.44;101531.19;5042780;57;1134755;-73
